sensor_id;sensor_type;location;lat;lon;timestamp;P1;durP1;ratioP1;P2;durP2;ratioP2
57441;SDS011;43284;47.042;15.498;2022-07-12T00:00:22;2.22;;;0.80;;
57441;SDS011;43284;47.042;15.498;2022-07-12T00:02:49;2.25;;;0.60;;
57441;SDS011;43284;47.042;15.498;2022-07-12T00:05:16;0.70;;;0.65;;
57441;SDS011;43284;47.042;15.498;2022-07-12T00:07:44;2.40;;;0.85;;
57441;SDS011;43284;47.042;15.498;2022-07-12T00:10:10;1.25;;;0.68;;
57441;SDS011;43284;47.042;15.498;2022-07-12T00:12:38;1.40;;;0.60;;
57441;SDS011;43284;47.042;15.498;2022-07-12T00:15:07;1.17;;;0.70;;
57441;SDS011;43284;47.042;15.498;2022-07-12T00:17:35;0.93;;;0.70;;
57441;SDS011;43284;47.042;15.498;2022-07-12T00:20:04;1.20;;;0.90;;
57441;SDS011;43284;47.042;15.498;2022-07-12T00:22:31;0.85;;;0.85;;
57441;SDS011;43284;47.042;15.498;2022-07-12T00:24:58;1.13;;;0.70;;
57441;SDS011;43284;47.042;15.498;2022-07-12T00:27:26;0.70;;;0.68;;
57441;SDS011;43284;47.042;15.498;2022-07-12T00:29:54;1.52;;;0.80;;
57441;SDS011;43284;47.042;15.498;2022-07-12T00:32:21;1.17;;;0.70;;
57441;SDS011;43284;47.042;15.498;2022-07-12T00:34:48;0.50;;;0.50;;
57441;SDS011;43284;47.042;15.498;2022-07-12T00:37:14;1.13;;;0.60;;
57441;SDS011;43284;47.042;15.498;2022-07-12T00:39:41;0.63;;;0.60;;
57441;SDS011;43284;47.042;15.498;2022-07-12T00:42:08;2.42;;;0.75;;
57441;SDS011;43284;47.042;15.498;2022-07-12T00:44:35;1.38;;;0.80;;
57441;SDS011;43284;47.042;15.498;2022-07-12T00:47:02;1.13;;;0.60;;
57441;SDS011;43284;47.042;15.498;2022-07-12T00:49:30;3.00;;;0.70;;
57441;SDS011;43284;47.042;15.498;2022-07-12T00:51:57;1.23;;;0.70;;
57441;SDS011;43284;47.042;15.498;2022-07-12T00:54:25;1.23;;;0.80;;
57441;SDS011;43284;47.042;15.498;2022-07-12T00:56:52;1.40;;;0.70;;
57441;SDS011;43284;47.042;15.498;2022-07-12T00:59:20;1.10;;;0.60;;
57441;SDS011;43284;47.042;15.498;2022-07-12T01:01:47;0.93;;;0.82;;
57441;SDS011;43284;47.042;15.498;2022-07-12T01:04:14;2.95;;;0.80;;
57441;SDS011;43284;47.042;15.498;2022-07-12T01:06:44;1.38;;;0.77;;
57441;SDS011;43284;47.042;15.498;2022-07-12T01:09:12;1.55;;;0.95;;
57441;SDS011;43284;47.042;15.498;2022-07-12T01:11:39;1.00;;;0.57;;
57441;SDS011;43284;47.042;15.498;2022-07-12T01:14:06;1.05;;;0.82;;
57441;SDS011;43284;47.042;15.498;2022-07-12T01:16:34;1.67;;;0.50;;
57441;SDS011;43284;47.042;15.498;2022-07-12T01:19:04;0.85;;;0.75;;
57441;SDS011;43284;47.042;15.498;2022-07-12T01:21:34;1.40;;;1.10;;
57441;SDS011;43284;47.042;15.498;2022-07-12T01:24:04;2.25;;;0.60;;
57441;SDS011;43284;47.042;15.498;2022-07-12T01:26:32;1.35;;;0.77;;
57441;SDS011;43284;47.042;15.498;2022-07-12T01:28:59;0.82;;;0.77;;
57441;SDS011;43284;47.042;15.498;2022-07-12T01:31:27;0.88;;;0.75;;
57441;SDS011;43284;47.042;15.498;2022-07-12T01:33:57;1.38;;;0.80;;
57441;SDS011;43284;47.042;15.498;2022-07-12T01:36:24;0.60;;;0.60;;
57441;SDS011;43284;47.042;15.498;2022-07-12T01:38:51;1.58;;;0.70;;
57441;SDS011;43284;47.042;15.498;2022-07-12T01:41:18;4.60;;;0.70;;
57441;SDS011;43284;47.042;15.498;2022-07-12T01:43:46;0.68;;;0.65;;
57441;SDS011;43284;47.042;15.498;2022-07-12T01:46:13;1.88;;;0.80;;
57441;SDS011;43284;47.042;15.498;2022-07-12T01:48:41;0.60;;;0.60;;
57441;SDS011;43284;47.042;15.498;2022-07-12T01:51:08;0.70;;;0.60;;
57441;SDS011;43284;47.042;15.498;2022-07-12T01:53:35;0.70;;;0.55;;
57441;SDS011;43284;47.042;15.498;2022-07-12T01:56:03;1.73;;;0.77;;
57441;SDS011;43284;47.042;15.498;2022-07-12T01:58:30;1.63;;;0.80;;
57441;SDS011;43284;47.042;15.498;2022-07-12T02:00:58;2.10;;;0.60;;
57441;SDS011;43284;47.042;15.498;2022-07-12T02:03:26;0.55;;;0.50;;
57441;SDS011;43284;47.042;15.498;2022-07-12T02:05:53;0.60;;;0.60;;
57441;SDS011;43284;47.042;15.498;2022-07-12T02:08:20;1.88;;;0.70;;
57441;SDS011;43284;47.042;15.498;2022-07-12T02:10:47;1.23;;;0.80;;
57441;SDS011;43284;47.042;15.498;2022-07-12T02:13:14;0.68;;;0.60;;
57441;SDS011;43284;47.042;15.498;2022-07-12T02:15:41;1.40;;;0.75;;
57441;SDS011;43284;47.042;15.498;2022-07-12T02:18:07;0.70;;;0.70;;
57441;SDS011;43284;47.042;15.498;2022-07-12T02:20:34;0.75;;;0.75;;
57441;SDS011;43284;47.042;15.498;2022-07-12T02:23:01;3.13;;;0.70;;
57441;SDS011;43284;47.042;15.498;2022-07-12T02:25:28;1.38;;;0.70;;
57441;SDS011;43284;47.042;15.498;2022-07-12T02:27:55;0.93;;;0.70;;
57441;SDS011;43284;47.042;15.498;2022-07-12T02:30:22;0.93;;;0.60;;
57441;SDS011;43284;47.042;15.498;2022-07-12T02:32:49;1.42;;;0.75;;
57441;SDS011;43284;47.042;15.498;2022-07-12T02:35:21;1.67;;;0.70;;
57441;SDS011;43284;47.042;15.498;2022-07-12T02:37:47;0.70;;;0.70;;
57441;SDS011;43284;47.042;15.498;2022-07-12T02:40:14;0.60;;;0.60;;
57441;SDS011;43284;47.042;15.498;2022-07-12T02:43:00;1.63;;;0.85;;
57441;SDS011;43284;47.042;15.498;2022-07-12T02:45:28;0.75;;;0.65;;
57441;SDS011;43284;47.042;15.498;2022-07-12T02:47:55;1.05;;;0.80;;
57441;SDS011;43284;47.042;15.498;2022-07-12T02:50:22;0.68;;;0.60;;
57441;SDS011;43284;47.042;15.498;2022-07-12T02:52:49;0.70;;;0.70;;
57441;SDS011;43284;47.042;15.498;2022-07-12T02:55:16;1.15;;;0.90;;
57441;SDS011;43284;47.042;15.498;2022-07-12T02:57:43;0.65;;;0.65;;
57441;SDS011;43284;47.042;15.498;2022-07-12T03:00:10;1.48;;;1.10;;
57441;SDS011;43284;47.042;15.498;2022-07-12T03:02:37;0.55;;;0.55;;
57441;SDS011;43284;47.042;15.498;2022-07-12T03:05:05;1.95;;;0.60;;
57441;SDS011;43284;47.042;15.498;2022-07-12T03:07:32;1.60;;;0.60;;
57441;SDS011;43284;47.042;15.498;2022-07-12T03:09:59;1.10;;;0.75;;
57441;SDS011;43284;47.042;15.498;2022-07-12T03:12:27;3.03;;;0.73;;
57441;SDS011;43284;47.042;15.498;2022-07-12T03:14:54;0.80;;;0.80;;
57441;SDS011;43284;47.042;15.498;2022-07-12T03:17:22;1.10;;;0.75;;
57441;SDS011;43284;47.042;15.498;2022-07-12T03:19:48;1.05;;;0.85;;
57441;SDS011;43284;47.042;15.498;2022-07-12T03:22:15;0.70;;;0.70;;
57441;SDS011;43284;47.042;15.498;2022-07-12T03:24:42;0.80;;;0.70;;
57441;SDS011;43284;47.042;15.498;2022-07-12T03:27:09;2.38;;;0.63;;
57441;SDS011;43284;47.042;15.498;2022-07-12T03:29:36;0.68;;;0.68;;
57441;SDS011;43284;47.042;15.498;2022-07-12T03:32:03;1.58;;;0.77;;
57441;SDS011;43284;47.042;15.498;2022-07-12T03:34:32;1.25;;;0.60;;
57441;SDS011;43284;47.042;15.498;2022-07-12T03:36:59;0.95;;;0.70;;
57441;SDS011;43284;47.042;15.498;2022-07-12T03:39:26;0.95;;;0.70;;
57441;SDS011;43284;47.042;15.498;2022-07-12T03:41:53;1.60;;;0.90;;
57441;SDS011;43284;47.042;15.498;2022-07-12T03:44:20;0.52;;;0.52;;
57441;SDS011;43284;47.042;15.498;2022-07-12T03:46:47;2.08;;;0.80;;
57441;SDS011;43284;47.042;15.498;2022-07-12T03:49:14;2.83;;;0.70;;
57441;SDS011;43284;47.042;15.498;2022-07-12T03:51:41;0.68;;;0.57;;
57441;SDS011;43284;47.042;15.498;2022-07-12T03:54:08;2.17;;;0.70;;
57441;SDS011;43284;47.042;15.498;2022-07-12T03:56:35;0.80;;;0.80;;
57441;SDS011;43284;47.042;15.498;2022-07-12T03:59:20;1.10;;;1.00;;
57441;SDS011;43284;47.042;15.498;2022-07-12T04:01:48;1.15;;;0.60;;
57441;SDS011;43284;47.042;15.498;2022-07-12T04:04:16;1.30;;;0.80;;
57441;SDS011;43284;47.042;15.498;2022-07-12T04:06:43;0.75;;;0.65;;
57441;SDS011;43284;47.042;15.498;2022-07-12T04:09:12;0.98;;;0.77;;
57441;SDS011;43284;47.042;15.498;2022-07-12T04:11:39;3.50;;;0.70;;
57441;SDS011;43284;47.042;15.498;2022-07-12T04:14:06;0.80;;;0.80;;
57441;SDS011;43284;47.042;15.498;2022-07-12T04:16:33;1.30;;;0.70;;
57441;SDS011;43284;47.042;15.498;2022-07-12T04:19:00;2.38;;;0.98;;
57441;SDS011;43284;47.042;15.498;2022-07-12T04:21:27;2.25;;;0.75;;
57441;SDS011;43284;47.042;15.498;2022-07-12T04:23:57;2.22;;;0.68;;
57441;SDS011;43284;47.042;15.498;2022-07-12T04:26:24;1.02;;;0.88;;
57441;SDS011;43284;47.042;15.498;2022-07-12T04:28:52;1.05;;;0.82;;
57441;SDS011;43284;47.042;15.498;2022-07-12T04:31:18;2.10;;;0.70;;
57441;SDS011;43284;47.042;15.498;2022-07-12T04:33:46;1.95;;;1.05;;
57441;SDS011;43284;47.042;15.498;2022-07-12T04:36:14;1.65;;;0.95;;
57441;SDS011;43284;47.042;15.498;2022-07-12T04:38:41;0.80;;;0.80;;
57441;SDS011;43284;47.042;15.498;2022-07-12T04:41:08;1.70;;;1.60;;
57441;SDS011;43284;47.042;15.498;2022-07-12T04:43:35;1.15;;;0.77;;
57441;SDS011;43284;47.042;15.498;2022-07-12T04:46:06;0.88;;;0.60;;
57441;SDS011;43284;47.042;15.498;2022-07-12T04:48:37;2.25;;;0.80;;
57441;SDS011;43284;47.042;15.498;2022-07-12T04:51:04;1.42;;;0.90;;
57441;SDS011;43284;47.042;15.498;2022-07-12T04:53:31;0.65;;;0.65;;
57441;SDS011;43284;47.042;15.498;2022-07-12T04:55:58;0.80;;;0.70;;
57441;SDS011;43284;47.042;15.498;2022-07-12T04:58:25;1.23;;;0.75;;
57441;SDS011;43284;47.042;15.498;2022-07-12T05:00:52;0.63;;;0.63;;
57441;SDS011;43284;47.042;15.498;2022-07-12T05:03:19;2.80;;;1.25;;
57441;SDS011;43284;47.042;15.498;2022-07-12T05:05:46;0.85;;;0.80;;
57441;SDS011;43284;47.042;15.498;2022-07-12T05:08:12;1.88;;;0.90;;
57441;SDS011;43284;47.042;15.498;2022-07-12T05:10:40;1.58;;;0.80;;
57441;SDS011;43284;47.042;15.498;2022-07-12T05:13:06;1.15;;;0.70;;
57441;SDS011;43284;47.042;15.498;2022-07-12T05:15:34;0.73;;;0.73;;
57441;SDS011;43284;47.042;15.498;2022-07-12T05:18:01;2.65;;;0.70;;
57441;SDS011;43284;47.042;15.498;2022-07-12T05:20:28;1.08;;;0.98;;
57441;SDS011;43284;47.042;15.498;2022-07-12T05:22:55;2.00;;;0.60;;
57441;SDS011;43284;47.042;15.498;2022-07-12T05:25:23;3.63;;;0.90;;
57441;SDS011;43284;47.042;15.498;2022-07-12T05:27:50;1.63;;;1.00;;
57441;SDS011;43284;47.042;15.498;2022-07-12T05:30:17;2.60;;;0.93;;
57441;SDS011;43284;47.042;15.498;2022-07-12T05:32:44;1.10;;;0.88;;
57441;SDS011;43284;47.042;15.498;2022-07-12T05:35:11;1.13;;;0.95;;
57441;SDS011;43284;47.042;15.498;2022-07-12T05:37:38;4.80;;;1.00;;
57441;SDS011;43284;47.042;15.498;2022-07-12T05:40:05;3.90;;;1.08;;
57441;SDS011;43284;47.042;15.498;2022-07-12T05:42:33;1.58;;;0.90;;
57441;SDS011;43284;47.042;15.498;2022-07-12T05:45:03;3.42;;;1.02;;
57441;SDS011;43284;47.042;15.498;2022-07-12T05:47:31;0.77;;;0.77;;
57441;SDS011;43284;47.042;15.498;2022-07-12T05:49:58;4.43;;;0.70;;
57441;SDS011;43284;47.042;15.498;2022-07-12T05:52:26;1.48;;;1.08;;
57441;SDS011;43284;47.042;15.498;2022-07-12T05:55:11;2.13;;;1.00;;
57441;SDS011;43284;47.042;15.498;2022-07-12T05:57:38;1.13;;;0.75;;
57441;SDS011;43284;47.042;15.498;2022-07-12T06:00:06;5.20;;;1.10;;
57441;SDS011;43284;47.042;15.498;2022-07-12T06:02:34;3.53;;;1.00;;
57441;SDS011;43284;47.042;15.498;2022-07-12T06:05:01;1.08;;;0.80;;
57441;SDS011;43284;47.042;15.498;2022-07-12T06:07:30;0.90;;;0.77;;
57441;SDS011;43284;47.042;15.498;2022-07-12T06:09:57;2.78;;;1.10;;
57441;SDS011;43284;47.042;15.498;2022-07-12T06:12:24;1.90;;;1.00;;
57441;SDS011;43284;47.042;15.498;2022-07-12T06:14:51;2.95;;;1.00;;
57441;SDS011;43284;47.042;15.498;2022-07-12T06:17:19;2.53;;;0.93;;
57441;SDS011;43284;47.042;15.498;2022-07-12T06:19:49;3.83;;;1.27;;
57441;SDS011;43284;47.042;15.498;2022-07-12T06:22:17;3.80;;;1.00;;
57441;SDS011;43284;47.042;15.498;2022-07-12T06:24:44;4.50;;;1.20;;
57441;SDS011;43284;47.042;15.498;2022-07-12T06:27:12;3.25;;;1.30;;
57441;SDS011;43284;47.042;15.498;2022-07-12T06:29:39;1.40;;;0.90;;
57441;SDS011;43284;47.042;15.498;2022-07-12T06:32:06;3.10;;;1.10;;
57441;SDS011;43284;47.042;15.498;2022-07-12T06:34:36;3.13;;;1.25;;
57441;SDS011;43284;47.042;15.498;2022-07-12T06:37:03;5.60;;;1.17;;
57441;SDS011;43284;47.042;15.498;2022-07-12T06:39:35;4.20;;;1.50;;
57441;SDS011;43284;47.042;15.498;2022-07-12T06:42:02;21.38;;;3.50;;
57441;SDS011;43284;47.042;15.498;2022-07-12T06:44:31;6.32;;;1.58;;
57441;SDS011;43284;47.042;15.498;2022-07-12T06:46:59;8.15;;;1.90;;
57441;SDS011;43284;47.042;15.498;2022-07-12T06:49:28;4.25;;;1.27;;
57441;SDS011;43284;47.042;15.498;2022-07-12T06:51:55;2.58;;;1.30;;
57441;SDS011;43284;47.042;15.498;2022-07-12T06:54:23;4.38;;;1.10;;
57441;SDS011;43284;47.042;15.498;2022-07-12T06:56:51;2.35;;;1.40;;
57441;SDS011;43284;47.042;15.498;2022-07-12T06:59:18;6.05;;;1.30;;
57441;SDS011;43284;47.042;15.498;2022-07-12T07:01:45;1.05;;;0.88;;
57441;SDS011;43284;47.042;15.498;2022-07-12T07:04:12;6.55;;;1.25;;
57441;SDS011;43284;47.042;15.498;2022-07-12T07:06:39;3.80;;;1.17;;
57441;SDS011;43284;47.042;15.498;2022-07-12T07:09:06;3.42;;;1.20;;
57441;SDS011;43284;47.042;15.498;2022-07-12T07:11:34;4.45;;;0.90;;
57441;SDS011;43284;47.042;15.498;2022-07-12T07:14:02;4.95;;;1.27;;
57441;SDS011;43284;47.042;15.498;2022-07-12T07:16:30;5.75;;;1.20;;
57441;SDS011;43284;47.042;15.498;2022-07-12T07:18:57;1.95;;;1.00;;
57441;SDS011;43284;47.042;15.498;2022-07-12T07:21:24;4.60;;;1.00;;
57441;SDS011;43284;47.042;15.498;2022-07-12T07:23:51;2.20;;;1.20;;
57441;SDS011;43284;47.042;15.498;2022-07-12T07:26:19;3.67;;;1.15;;
57441;SDS011;43284;47.042;15.498;2022-07-12T07:28:46;3.90;;;1.13;;
57441;SDS011;43284;47.042;15.498;2022-07-12T07:31:35;3.17;;;0.98;;
57441;SDS011;43284;47.042;15.498;2022-07-12T07:34:03;1.13;;;0.80;;
57441;SDS011;43284;47.042;15.498;2022-07-12T07:36:30;2.28;;;0.98;;
57441;SDS011;43284;47.042;15.498;2022-07-12T07:38:58;4.07;;;0.90;;
57441;SDS011;43284;47.042;15.498;2022-07-12T07:41:26;3.88;;;1.13;;
57441;SDS011;43284;47.042;15.498;2022-07-12T07:43:53;1.33;;;0.77;;
57441;SDS011;43284;47.042;15.498;2022-07-12T07:46:21;2.47;;;1.30;;
57441;SDS011;43284;47.042;15.498;2022-07-12T07:48:49;5.47;;;1.98;;
57441;SDS011;43284;47.042;15.498;2022-07-12T07:51:16;3.38;;;1.27;;
57441;SDS011;43284;47.042;15.498;2022-07-12T07:53:43;3.00;;;1.02;;
57441;SDS011;43284;47.042;15.498;2022-07-12T07:56:10;2.25;;;0.90;;
57441;SDS011;43284;47.042;15.498;2022-07-12T07:58:38;1.95;;;1.00;;
57441;SDS011;43284;47.042;15.498;2022-07-12T08:01:06;3.65;;;1.20;;
57441;SDS011;43284;47.042;15.498;2022-07-12T08:03:33;1.90;;;1.00;;
57441;SDS011;43284;47.042;15.498;2022-07-12T08:06:00;7.93;;;1.23;;
57441;SDS011;43284;47.042;15.498;2022-07-12T08:08:27;5.57;;;1.00;;
57441;SDS011;43284;47.042;15.498;2022-07-12T08:10:54;1.60;;;0.70;;
57441;SDS011;43284;47.042;15.498;2022-07-12T08:13:21;2.95;;;0.88;;
57441;SDS011;43284;47.042;15.498;2022-07-12T08:15:49;7.45;;;0.90;;
57441;SDS011;43284;47.042;15.498;2022-07-12T08:18:17;2.30;;;0.82;;
57441;SDS011;43284;47.042;15.498;2022-07-12T08:20:44;2.03;;;0.70;;
57441;SDS011;43284;47.042;15.498;2022-07-12T08:23:12;0.95;;;0.70;;
57441;SDS011;43284;47.042;15.498;2022-07-12T08:25:39;3.17;;;1.08;;
57441;SDS011;43284;47.042;15.498;2022-07-12T08:28:09;4.05;;;1.30;;
57441;SDS011;43284;47.042;15.498;2022-07-12T08:30:37;9.07;;;1.10;;
57441;SDS011;43284;47.042;15.498;2022-07-12T08:33:06;2.28;;;0.80;;
57441;SDS011;43284;47.042;15.498;2022-07-12T08:35:35;1.83;;;1.10;;
57441;SDS011;43284;47.042;15.498;2022-07-12T08:38:03;3.03;;;0.88;;
57441;SDS011;43284;47.042;15.498;2022-07-12T08:40:30;2.00;;;0.98;;
57441;SDS011;43284;47.042;15.498;2022-07-12T08:43:00;2.55;;;0.95;;
57441;SDS011;43284;47.042;15.498;2022-07-12T08:45:28;5.65;;;1.10;;
57441;SDS011;43284;47.042;15.498;2022-07-12T08:47:57;3.80;;;1.35;;
57441;SDS011;43284;47.042;15.498;2022-07-12T08:50:25;0.88;;;0.70;;
57441;SDS011;43284;47.042;15.498;2022-07-12T08:52:58;1.45;;;1.10;;
57441;SDS011;43284;47.042;15.498;2022-07-12T08:55:30;2.08;;;0.82;;
57441;SDS011;43284;47.042;15.498;2022-07-12T08:58:01;0.80;;;0.77;;
57441;SDS011;43284;47.042;15.498;2022-07-12T09:00:32;1.05;;;0.90;;
57441;SDS011;43284;47.042;15.498;2022-07-12T09:03:01;1.52;;;0.73;;
57441;SDS011;43284;47.042;15.498;2022-07-12T09:05:31;0.85;;;0.60;;
57441;SDS011;43284;47.042;15.498;2022-07-12T09:08:05;0.80;;;0.40;;
57441;SDS011;43284;47.042;15.498;2022-07-12T09:10:58;0.70;;;0.60;;
57441;SDS011;43284;47.042;15.498;2022-07-12T09:16:26;2.38;;;0.90;;
57441;SDS011;43284;47.042;15.498;2022-07-12T09:21:58;3.55;;;0.68;;
57441;SDS011;43284;47.042;15.498;2022-07-12T09:24:25;0.40;;;0.40;;
57441;SDS011;43284;47.042;15.498;2022-07-12T09:27:02;1.15;;;0.70;;
57441;SDS011;43284;47.042;15.498;2022-07-12T09:29:30;3.22;;;0.70;;
57441;SDS011;43284;47.042;15.498;2022-07-12T09:32:08;0.73;;;0.68;;
57441;SDS011;43284;47.042;15.498;2022-07-12T09:34:57;4.28;;;0.70;;
57441;SDS011;43284;47.042;15.498;2022-07-12T09:37:43;0.95;;;0.70;;
57441;SDS011;43284;47.042;15.498;2022-07-12T09:40:10;1.00;;;0.63;;
57441;SDS011;43284;47.042;15.498;2022-07-12T09:42:49;0.85;;;0.52;;
57441;SDS011;43284;47.042;15.498;2022-07-12T09:45:16;2.28;;;0.88;;
57441;SDS011;43284;47.042;15.498;2022-07-12T09:47:45;0.55;;;0.55;;
57441;SDS011;43284;47.042;15.498;2022-07-12T09:50:15;0.50;;;0.50;;
57441;SDS011;43284;47.042;15.498;2022-07-12T09:52:44;0.70;;;0.70;;
57441;SDS011;43284;47.042;15.498;2022-07-12T09:55:18;0.80;;;0.80;;
57441;SDS011;43284;47.042;15.498;2022-07-12T09:57:51;3.10;;;0.70;;
57441;SDS011;43284;47.042;15.498;2022-07-12T10:00:25;1.70;;;0.77;;
57441;SDS011;43284;47.042;15.498;2022-07-12T10:02:53;2.65;;;0.70;;
57441;SDS011;43284;47.042;15.498;2022-07-12T10:05:25;0.77;;;0.60;;
57441;SDS011;43284;47.042;15.498;2022-07-12T10:07:54;2.33;;;0.90;;
57441;SDS011;43284;47.042;15.498;2022-07-12T10:10:28;1.25;;;0.70;;
57441;SDS011;43284;47.042;15.498;2022-07-12T10:12:57;0.50;;;0.50;;
57441;SDS011;43284;47.042;15.498;2022-07-12T10:15:25;0.80;;;0.65;;
57441;SDS011;43284;47.042;15.498;2022-07-12T10:17:56;0.50;;;0.50;;
57441;SDS011;43284;47.042;15.498;2022-07-12T10:20:27;1.35;;;0.60;;
57441;SDS011;43284;47.042;15.498;2022-07-12T10:22:55;1.13;;;0.80;;
57441;SDS011;43284;47.042;15.498;2022-07-12T10:25:43;3.78;;;0.80;;
57441;SDS011;43284;47.042;15.498;2022-07-12T10:28:11;0.70;;;0.70;;
57441;SDS011;43284;47.042;15.498;2022-07-12T10:30:42;0.60;;;0.60;;
57441;SDS011;43284;47.042;15.498;2022-07-12T10:33:18;2.15;;;1.00;;
57441;SDS011;43284;47.042;15.498;2022-07-12T10:36:03;0.85;;;0.63;;
57441;SDS011;43284;47.042;15.498;2022-07-12T10:38:35;0.60;;;0.50;;
57441;SDS011;43284;47.042;15.498;2022-07-12T10:41:21;0.60;;;0.60;;
57441;SDS011;43284;47.042;15.498;2022-07-12T10:44:04;0.50;;;0.50;;
57441;SDS011;43284;47.042;15.498;2022-07-12T10:46:32;2.60;;;0.50;;
57441;SDS011;43284;47.042;15.498;2022-07-12T10:54:39;0.60;;;0.60;;
57441;SDS011;43284;47.042;15.498;2022-07-12T10:57:08;0.45;;;0.45;;
57441;SDS011;43284;47.042;15.498;2022-07-12T10:59:37;0.50;;;0.45;;
57441;SDS011;43284;47.042;15.498;2022-07-12T11:02:04;0.50;;;0.50;;
57441;SDS011;43284;47.042;15.498;2022-07-12T11:04:31;3.72;;;0.60;;
57441;SDS011;43284;47.042;15.498;2022-07-12T11:07:01;0.40;;;0.40;;
57441;SDS011;43284;47.042;15.498;2022-07-12T11:09:29;0.50;;;0.50;;
57441;SDS011;43284;47.042;15.498;2022-07-12T11:11:57;0.77;;;0.68;;
57441;SDS011;43284;47.042;15.498;2022-07-12T11:14:25;0.47;;;0.47;;
57441;SDS011;43284;47.042;15.498;2022-07-12T11:16:56;0.47;;;0.47;;
57441;SDS011;43284;47.042;15.498;2022-07-12T11:19:37;0.75;;;0.65;;
57441;SDS011;43284;47.042;15.498;2022-07-12T11:22:05;2.15;;;0.70;;
57441;SDS011;43284;47.042;15.498;2022-07-12T11:24:37;0.57;;;0.52;;
57441;SDS011;43284;47.042;15.498;2022-07-12T11:27:06;0.68;;;0.50;;
57441;SDS011;43284;47.042;15.498;2022-07-12T11:29:55;0.52;;;0.52;;
57441;SDS011;43284;47.042;15.498;2022-07-12T11:32:38;0.65;;;0.65;;
57441;SDS011;43284;47.042;15.498;2022-07-12T11:35:22;0.57;;;0.57;;
57441;SDS011;43284;47.042;15.498;2022-07-12T11:37:54;1.08;;;0.52;;
57441;SDS011;43284;47.042;15.498;2022-07-12T11:40:27;0.47;;;0.47;;
57441;SDS011;43284;47.042;15.498;2022-07-12T11:43:04;2.15;;;0.50;;
57441;SDS011;43284;47.042;15.498;2022-07-12T11:45:32;0.50;;;0.50;;
57441;SDS011;43284;47.042;15.498;2022-07-12T11:48:02;1.20;;;0.60;;
57441;SDS011;43284;47.042;15.498;2022-07-12T11:50:32;0.93;;;0.43;;
57441;SDS011;43284;47.042;15.498;2022-07-12T11:53:00;1.30;;;0.68;;
57441;SDS011;43284;47.042;15.498;2022-07-12T11:55:28;0.47;;;0.47;;
57441;SDS011;43284;47.042;15.498;2022-07-12T11:58:05;0.55;;;0.55;;
57441;SDS011;43284;47.042;15.498;2022-07-12T12:00:33;0.73;;;0.60;;
57441;SDS011;43284;47.042;15.498;2022-07-12T12:03:01;0.60;;;0.60;;
57441;SDS011;43284;47.042;15.498;2022-07-12T12:05:36;2.65;;;0.80;;
57441;SDS011;43284;47.042;15.498;2022-07-12T12:08:04;0.68;;;0.60;;
57441;SDS011;43284;47.042;15.498;2022-07-12T12:10:33;0.85;;;0.60;;
57441;SDS011;43284;47.042;15.498;2022-07-12T12:13:01;0.55;;;0.52;;
57441;SDS011;43284;47.042;15.498;2022-07-12T12:15:30;0.63;;;0.40;;
57441;SDS011;43284;47.042;15.498;2022-07-12T12:18:00;0.40;;;0.40;;
57441;SDS011;43284;47.042;15.498;2022-07-12T12:20:36;0.55;;;0.50;;
57441;SDS011;43284;47.042;15.498;2022-07-12T12:23:16;1.40;;;0.47;;
57441;SDS011;43284;47.042;15.498;2022-07-12T12:25:46;1.10;;;0.50;;
57441;SDS011;43284;47.042;15.498;2022-07-12T12:28:15;1.05;;;0.32;;
57441;SDS011;43284;47.042;15.498;2022-07-12T12:30:56;0.50;;;0.50;;
57441;SDS011;43284;47.042;15.498;2022-07-12T12:33:39;0.52;;;0.50;;
57441;SDS011;43284;47.042;15.498;2022-07-12T12:36:16;0.82;;;0.63;;
57441;SDS011;43284;47.042;15.498;2022-07-12T12:38:44;0.60;;;0.60;;
57441;SDS011;43284;47.042;15.498;2022-07-12T12:41:17;0.40;;;0.40;;
57441;SDS011;43284;47.042;15.498;2022-07-12T12:43:55;0.95;;;0.50;;
57441;SDS011;43284;47.042;15.498;2022-07-12T12:49:12;0.82;;;0.40;;
57441;SDS011;43284;47.042;15.498;2022-07-12T12:51:56;0.60;;;0.55;;
57441;SDS011;43284;47.042;15.498;2022-07-12T12:54:40;0.47;;;0.47;;
57441;SDS011;43284;47.042;15.498;2022-07-12T12:57:08;0.95;;;0.45;;
57441;SDS011;43284;47.042;15.498;2022-07-12T12:59:36;0.47;;;0.40;;
57441;SDS011;43284;47.042;15.498;2022-07-12T13:02:05;3.40;;;0.40;;
57441;SDS011;43284;47.042;15.498;2022-07-12T13:04:37;0.60;;;0.50;;
57441;SDS011;43284;47.042;15.498;2022-07-12T13:07:05;0.38;;;0.38;;
57441;SDS011;43284;47.042;15.498;2022-07-12T13:09:33;0.82;;;0.40;;
57441;SDS011;43284;47.042;15.498;2022-07-12T13:12:01;1.85;;;0.50;;
57441;SDS011;43284;47.042;15.498;2022-07-12T13:14:30;0.65;;;0.50;;
57441;SDS011;43284;47.042;15.498;2022-07-12T13:16:57;0.50;;;0.30;;
57441;SDS011;43284;47.042;15.498;2022-07-12T13:19:24;0.63;;;0.47;;
57441;SDS011;43284;47.042;15.498;2022-07-12T13:21:52;0.50;;;0.50;;
57441;SDS011;43284;47.042;15.498;2022-07-12T13:24:20;0.65;;;0.50;;
57441;SDS011;43284;47.042;15.498;2022-07-12T13:26:48;0.70;;;0.57;;
57441;SDS011;43284;47.042;15.498;2022-07-12T13:29:21;0.47;;;0.47;;
57441;SDS011;43284;47.042;15.498;2022-07-12T13:31:48;1.05;;;0.55;;
57441;SDS011;43284;47.042;15.498;2022-07-12T13:34:16;1.42;;;0.50;;
57441;SDS011;43284;47.042;15.498;2022-07-12T13:36:43;0.55;;;0.50;;
57441;SDS011;43284;47.042;15.498;2022-07-12T13:39:10;0.50;;;0.50;;
57441;SDS011;43284;47.042;15.498;2022-07-12T13:41:56;0.40;;;0.30;;
57441;SDS011;43284;47.042;15.498;2022-07-12T13:44:24;0.40;;;0.40;;
57441;SDS011;43284;47.042;15.498;2022-07-12T13:46:53;1.35;;;0.60;;
57441;SDS011;43284;47.042;15.498;2022-07-12T13:49:22;0.50;;;0.47;;
57441;SDS011;43284;47.042;15.498;2022-07-12T13:51:50;0.70;;;0.40;;
57441;SDS011;43284;47.042;15.498;2022-07-12T13:54:17;0.90;;;0.55;;
57441;SDS011;43284;47.042;15.498;2022-07-12T13:56:45;0.40;;;0.40;;
57441;SDS011;43284;47.042;15.498;2022-07-12T13:59:20;0.55;;;0.40;;
57441;SDS011;43284;47.042;15.498;2022-07-12T14:01:49;0.52;;;0.52;;
57441;SDS011;43284;47.042;15.498;2022-07-12T14:04:19;0.45;;;0.45;;
57441;SDS011;43284;47.042;15.498;2022-07-12T14:06:46;1.23;;;0.40;;
57441;SDS011;43284;47.042;15.498;2022-07-12T14:09:21;0.50;;;0.50;;
57441;SDS011;43284;47.042;15.498;2022-07-12T14:11:49;1.00;;;0.75;;
57441;SDS011;43284;47.042;15.498;2022-07-12T14:14:17;0.60;;;0.60;;
57441;SDS011;43284;47.042;15.498;2022-07-12T14:17:05;1.65;;;0.60;;
57441;SDS011;43284;47.042;15.498;2022-07-12T14:19:33;0.43;;;0.43;;
57441;SDS011;43284;47.042;15.498;2022-07-12T14:22:00;0.80;;;0.80;;
57441;SDS011;43284;47.042;15.498;2022-07-12T14:24:29;0.70;;;0.70;;
57441;SDS011;43284;47.042;15.498;2022-07-12T14:26:59;0.50;;;0.50;;
57441;SDS011;43284;47.042;15.498;2022-07-12T14:29:28;1.85;;;0.60;;
57441;SDS011;43284;47.042;15.498;2022-07-12T14:31:56;0.40;;;0.40;;
57441;SDS011;43284;47.042;15.498;2022-07-12T14:34:24;0.40;;;0.40;;
57441;SDS011;43284;47.042;15.498;2022-07-12T14:36:51;0.75;;;0.60;;
57441;SDS011;43284;47.042;15.498;2022-07-12T14:39:19;0.55;;;0.55;;
57441;SDS011;43284;47.042;15.498;2022-07-12T14:41:47;0.32;;;0.32;;
57441;SDS011;43284;47.042;15.498;2022-07-12T14:44:15;1.63;;;0.70;;
57441;SDS011;43284;47.042;15.498;2022-07-12T14:46:45;0.55;;;0.55;;
57441;SDS011;43284;47.042;15.498;2022-07-12T14:49:13;0.95;;;0.60;;
57441;SDS011;43284;47.042;15.498;2022-07-12T14:51:41;1.85;;;0.50;;
57441;SDS011;43284;47.042;15.498;2022-07-12T14:54:08;0.85;;;0.47;;
57441;SDS011;43284;47.042;15.498;2022-07-12T14:56:36;0.52;;;0.52;;
57441;SDS011;43284;47.042;15.498;2022-07-12T14:59:03;2.15;;;0.57;;